Accueil
METAR-TAF:

METAR-TAF

Aéroports :

Saint-Moritz, Suisse

Aéroport de Samedan-Engadin

latitude: 46-32-03N, longitude: 9-53-03E, altitude: 1707 m

Observation

Le bulletin a été fait il y a 16 minutes, à 21:50 UTC
Vent 5 kt de sud
Température 0°C
Humidité 80%
Pression 1018 hPa
Visibilité 10 km ou plus
Nuages fragmentés à une hauteur de 2500 ft
Nuages épars à une hauteur de 10000 ft

METAR: LSZS 242150Z AUTO 19005KT 9999 BKN025 SCT100 M00/M03 Q1018

Heure: 23:06 (22:06 UTC)

Prévision

Le bulletin a été fait il y a 7 heures et 41 minutes, à 14:25 UTC
Prévision valable du 24 à 15 UTC au 24 à 24 UTC
Vent 3 kt de direction variable
Visibilité 10 km ou plus
Quelques nuages à une hauteur de 8000 ft
Temporairement
du 24 à 15 UTC au 24 à 21 UTC
Visibilité 10 km ou plus
pas de nuages en-dessous de 1500 mètres et pas de cumulonimbus.

TAF: LSZS 241425Z 2415/2424 VRB03KT 9999 FEW080 TX04/2415Z TEMPO 2415/2421 CAVOK

Observations et prévisions météorologiques de plus de 4000 aéroports (messages METAR et TAF).

Les stations disponibles sont représentées par des disques jaunes et rouges sur la carte.

Passer la souris dessus pour voir le nom de la station.

Cliquer dessus pour voir les observations et prévisions météorologiques.

Pour changer de carte: cliquez sur les boutons verts avec une croix noire pour zoomer, sur le bouton vert avec un tiret pour effectuer un zoom arrière, ou sur les flèches vertes pour les cartes adjacentes.


METAR-TAF: